createdAt,value
2018-12-16T00:01:14.599Z,80.57
2018-12-16T00:03:42.939Z,89.77
2018-12-16T00:06:11.295Z,74.33
2018-12-16T00:08:39.662Z,74.30
2018-12-16T00:11:08.030Z,79.40
2018-12-16T00:13:36.542Z,80.93
2018-12-16T00:16:04.879Z,73.60
2018-12-16T00:18:33.210Z,79.43
2018-12-16T00:21:01.580Z,74.50
2018-12-16T00:23:29.917Z,81.43
2018-12-16T00:25:58.554Z,75.83
2018-12-16T00:28:26.881Z,75.17
2018-12-16T00:30:55.260Z,78.80
2018-12-16T00:33:23.602Z,71.17
2018-12-16T00:35:51.966Z,67.30
2018-12-16T00:38:20.425Z,75.70
2018-12-16T00:40:48.768Z,78.37
2018-12-16T00:43:17.154Z,78.40
2018-12-16T00:45:45.497Z,70.77
2018-12-16T00:48:13.847Z,76.67
2018-12-16T00:50:42.215Z,70.93
2018-12-16T00:53:10.551Z,68.60
2018-12-16T00:55:38.892Z,44.70
2018-12-16T00:58:07.270Z,72.33
2018-12-16T01:00:35.619Z,62.60
2018-12-16T01:03:04.174Z,69.70
2018-12-16T01:05:32.629Z,65.10
2018-12-16T01:08:00.975Z,69.73
2018-12-16T01:10:29.352Z,70.00
2018-12-16T01:12:57.708Z,60.37
2018-12-16T01:15:26.097Z,71.30
2018-12-16T01:17:54.482Z,55.40
2018-12-16T01:20:22.865Z,71.97
2018-12-16T01:22:51.251Z,63.00
2018-12-16T01:25:19.629Z,60.23
2018-12-16T01:27:48.001Z,46.60
2018-12-16T01:30:16.384Z,66.57
2018-12-16T01:32:44.764Z,50.00
2018-12-16T01:35:13.207Z,56.17
2018-12-16T01:37:41.560Z,56.87
2018-12-16T01:40:10.064Z,61.60
2018-12-16T01:42:38.414Z,51.57
2018-12-16T01:45:06.914Z,50.10
2018-12-16T01:47:35.280Z,51.67
2018-12-16T01:50:04.587Z,50.27
2018-12-16T01:52:32.950Z,53.53
2018-12-16T01:55:01.313Z,55.63
2018-12-16T01:57:29.684Z,59.97
2018-12-16T01:59:57.979Z,47.33
2018-12-16T02:02:26.409Z,50.97
2018-12-16T02:04:54.769Z,61.43
2018-12-16T02:07:23.204Z,49.47
2018-12-16T02:09:51.547Z,48.87
2018-12-16T02:12:19.853Z,57.93
2018-12-16T02:14:48.281Z,46.30
2018-12-16T02:17:16.593Z,44.90
2018-12-16T02:19:44.947Z,45.27
2018-12-16T02:22:13.265Z,46.43
2018-12-16T02:24:41.602Z,45.10
2018-12-16T02:27:10.003Z,41.33
2018-12-16T02:29:38.359Z,35.63
2018-12-16T02:32:06.716Z,43.97
2018-12-16T02:34:35.086Z,41.30
2018-12-16T02:37:03.457Z,41.13
2018-12-16T02:39:31.833Z,34.37
2018-12-16T02:42:00.183Z,35.93
2018-12-16T02:44:28.530Z,39.30
2018-12-16T02:46:56.904Z,41.67
2018-12-16T02:49:25.263Z,33.50
2018-12-16T02:51:53.643Z,34.90
2018-12-16T02:54:21.989Z,32.83
2018-12-16T02:56:50.343Z,36.10
2018-12-16T02:59:18.707Z,29.30
2018-12-16T03:01:47.626Z,23.80
2018-12-16T03:04:16.137Z,29.70
2018-12-16T03:06:44.622Z,25.27
2018-12-16T03:09:12.974Z,25.97
2018-12-16T03:11:41.386Z,29.83
2018-12-16T03:14:09.740Z,25.90
2018-12-16T03:16:38.116Z,27.30
2018-12-16T03:19:06.569Z,27.63
2018-12-16T03:21:34.926Z,28.37
2018-12-16T03:24:03.293Z,29.20
2018-12-16T03:26:35.948Z,26.83
2018-12-16T03:29:03.233Z,23.17
2018-12-16T03:31:31.624Z,25.13
2018-12-16T03:34:00.095Z,24.10
2018-12-16T03:36:28.499Z,32.67
2018-12-16T03:38:56.921Z,22.13
2018-12-16T03:41:25.344Z,28.63
2018-12-16T03:43:53.752Z,23.50
2018-12-16T03:46:22.186Z,23.93
2018-12-16T03:48:50.591Z,27.30
2018-12-16T03:51:19.002Z,27.30
2018-12-16T03:53:47.438Z,29.37
2018-12-16T03:56:15.850Z,31.40
2018-12-16T03:59:02.244Z,33.90
2018-12-16T04:01:30.722Z,39.60
2018-12-16T04:03:59.129Z,34.10
2018-12-16T04:06:27.555Z,38.37
2018-12-16T04:08:55.960Z,39.10
2018-12-16T04:11:24.391Z,39.50
2018-12-16T04:13:52.769Z,42.27
2018-12-16T04:16:21.200Z,49.00
2018-12-16T04:18:49.626Z,39.80
2018-12-16T04:21:18.353Z,41.90
2018-12-16T04:23:46.748Z,40.87
2018-12-16T04:26:15.169Z,42.53
2018-12-16T04:28:43.704Z,48.77
2018-12-16T04:31:12.175Z,46.33
2018-12-16T04:33:40.612Z,45.63
2018-12-16T04:36:09.018Z,48.13
2018-12-16T04:38:37.478Z,55.50
2018-12-16T04:41:06.698Z,38.07
2018-12-16T04:43:35.125Z,49.63
2018-12-16T04:46:03.534Z,47.00
2018-12-16T04:48:31.975Z,43.90
2018-12-16T04:51:00.546Z,54.97
2018-12-16T04:53:35.877Z,45.50
2018-12-16T04:55:59.357Z,42.90
2018-12-16T04:58:27.768Z,41.37
2018-12-16T05:00:56.165Z,42.20
2018-12-16T05:03:24.732Z,46.00
2018-12-16T05:05:53.163Z,40.83
2018-12-16T05:08:21.566Z,32.60
2018-12-16T05:10:49.995Z,45.60
2018-12-16T05:13:18.419Z,41.27
2018-12-16T05:15:46.867Z,51.10
2018-12-16T05:18:15.298Z,49.60
2018-12-16T05:20:43.713Z,43.70
2018-12-16T05:23:12.156Z,48.30
2018-12-16T05:25:40.584Z,36.03
2018-12-16T05:28:09.009Z,46.90
2018-12-16T05:30:37.422Z,52.47
2018-12-16T05:33:06.020Z,51.03
2018-12-16T05:35:34.425Z,44.90
2018-12-16T05:38:02.829Z,42.43
2018-12-16T05:40:31.254Z,39.73
2018-12-16T05:42:59.813Z,53.33
2018-12-16T05:45:29.090Z,43.37
2018-12-16T05:47:57.494Z,53.57
2018-12-16T05:50:25.905Z,43.80
2018-12-16T05:52:54.353Z,33.57
2018-12-16T05:55:22.762Z,46.93
2018-12-16T05:57:51.175Z,45.10
2018-12-16T06:00:19.975Z,40.57
2018-12-16T06:02:48.388Z,40.50
2018-12-16T06:05:16.798Z,40.43
2018-12-16T06:07:45.432Z,46.43
2018-12-16T06:10:13.829Z,47.20
2018-12-16T06:12:42.278Z,40.10
2018-12-16T06:15:10.690Z,51.27
2018-12-16T06:17:39.093Z,47.27
2018-12-16T06:20:07.525Z,44.27
2018-12-16T06:22:36.034Z,31.87
2018-12-16T06:25:04.834Z,43.37
2018-12-16T06:27:33.184Z,46.27
2018-12-16T06:30:01.718Z,41.53
2018-12-16T06:32:30.121Z,42.00
2018-12-16T06:34:58.531Z,43.47
2018-12-16T06:37:27.139Z,45.87
2018-12-16T06:39:55.545Z,47.57
2018-12-16T06:42:23.891Z,54.03
2018-12-16T06:44:52.374Z,51.27
2018-12-16T06:47:20.730Z,50.57
2018-12-16T06:49:49.080Z,55.90
2018-12-16T06:52:17.504Z,50.13
2018-12-16T06:54:45.947Z,52.60
2018-12-16T06:57:14.293Z,51.70
2018-12-16T06:59:42.701Z,40.73
2018-12-16T07:02:11.096Z,35.30
2018-12-16T07:04:39.461Z,41.90
2018-12-16T07:07:08.149Z,38.50
2018-12-16T07:09:36.495Z,31.37
2018-12-16T07:12:04.855Z,40.23
2018-12-16T07:14:33.406Z,51.70
2018-12-16T07:17:01.750Z,48.47
2018-12-16T07:19:30.214Z,55.37
2018-12-16T07:21:58.690Z,51.30
2018-12-16T07:24:27.122Z,52.73
2018-12-16T07:26:55.538Z,40.97
2018-12-16T07:29:24.009Z,41.43
2018-12-16T07:31:52.500Z,37.53
2018-12-16T07:34:20.905Z,34.10
2018-12-16T07:36:49.611Z,33.30
2018-12-16T07:39:18.031Z,33.20
2018-12-16T07:41:46.540Z,32.60
2018-12-16T07:44:14.985Z,26.33
2018-12-16T07:46:43.359Z,30.27
2018-12-16T07:49:11.703Z,28.83
2018-12-16T07:51:40.110Z,26.10
2018-12-16T07:54:08.504Z,31.27
2018-12-16T07:56:36.936Z,30.70
2018-12-16T07:59:05.305Z,37.47
2018-12-16T08:01:33.658Z,26.80
2018-12-16T08:04:02.180Z,24.03
2018-12-16T08:06:30.724Z,28.87
2018-12-16T08:08:59.066Z,26.37
2018-12-16T08:11:27.414Z,31.87
2018-12-16T08:13:55.791Z,28.63
2018-12-16T08:16:24.145Z,32.77
2018-12-16T08:18:52.490Z,28.50
2018-12-16T08:21:20.858Z,27.33
2018-12-16T08:23:49.284Z,27.10
2018-12-16T08:26:17.701Z,33.80
2018-12-16T08:28:46.263Z,25.37
2018-12-16T08:31:14.636Z,27.33
2018-12-16T08:33:42.986Z,27.30
2018-12-16T08:36:11.367Z,23.87
2018-12-16T08:38:39.726Z,21.50
2018-12-16T08:41:08.095Z,16.30
2018-12-16T08:43:36.478Z,25.57
2018-12-16T08:46:04.922Z,24.23
2018-12-16T08:48:33.309Z,25.30
2018-12-16T08:51:01.678Z,22.03
2018-12-16T08:53:30.098Z,23.43
2018-12-16T08:55:58.544Z,25.93
2018-12-16T08:58:27.019Z,40.10
2018-12-16T09:00:55.427Z,32.23
2018-12-16T09:03:23.853Z,30.50
2018-12-16T09:05:52.398Z,23.97
2018-12-16T09:08:20.818Z,26.07
2018-12-16T09:10:49.234Z,15.13
2018-12-16T09:13:17.653Z,21.23
2018-12-16T09:15:46.184Z,22.30
2018-12-16T09:18:14.585Z,24.03
2018-12-16T09:20:43.164Z,22.20
2018-12-16T09:23:11.549Z,19.30
2018-12-16T09:25:39.980Z,18.80
2018-12-16T09:28:08.400Z,19.77
2018-12-16T09:30:37.716Z,18.90
2018-12-16T09:33:06.232Z,24.43
2018-12-16T09:35:34.758Z,23.13
2018-12-16T09:38:03.139Z,18.03
2018-12-16T09:40:31.562Z,21.33
2018-12-16T09:43:00.211Z,22.53
2018-12-16T09:45:28.631Z,26.17
2018-12-16T09:47:57.164Z,25.63
2018-12-16T09:50:25.624Z,18.73
2018-12-16T09:52:54.103Z,26.70
2018-12-16T09:55:22.571Z,24.90
2018-12-16T09:57:51.029Z,18.60
2018-12-16T10:00:19.532Z,21.90
2018-12-16T10:02:47.950Z,21.10
2018-12-16T10:05:16.380Z,22.83
2018-12-16T10:07:44.888Z,18.70
2018-12-16T10:10:13.291Z,17.80
2018-12-16T10:12:41.735Z,15.17
2018-12-16T10:15:10.231Z,17.97
2018-12-16T10:17:38.633Z,22.70
2018-12-16T10:20:09.652Z,25.20
2018-12-16T10:22:38.041Z,22.70
2018-12-16T10:25:06.451Z,26.43
2018-12-16T10:27:34.880Z,26.30
2018-12-16T10:30:04.585Z,28.00
2018-12-16T10:32:33.033Z,21.67
2018-12-16T10:35:01.448Z,20.00
2018-12-16T10:37:29.854Z,23.13
2018-12-16T10:39:58.259Z,28.50
2018-12-16T10:42:26.851Z,22.20
2018-12-16T10:44:55.261Z,23.37
2018-12-16T10:47:23.673Z,19.30
2018-12-16T10:49:52.123Z,19.47
2018-12-16T10:52:20.546Z,22.37
2018-12-16T10:54:48.994Z,18.47
2018-12-16T10:57:17.605Z,24.60
2018-12-16T10:59:46.044Z,24.43
2018-12-16T11:02:14.458Z,26.63
2018-12-16T11:04:42.922Z,25.53
2018-12-16T11:07:11.412Z,26.30
2018-12-16T11:09:39.871Z,20.63
2018-12-16T11:12:08.282Z,22.13
2018-12-16T11:14:36.675Z,27.90
2018-12-16T11:17:05.104Z,26.83
2018-12-16T11:19:33.536Z,23.33
2018-12-16T11:22:01.960Z,22.90
2018-12-16T11:24:30.378Z,21.20
2018-12-16T11:26:58.803Z,26.80
2018-12-16T11:29:27.380Z,20.93
2018-12-16T11:31:55.802Z,26.57
2018-12-16T11:34:24.222Z,25.37
2018-12-16T11:36:52.624Z,24.20
2018-12-16T11:39:21.032Z,21.30
2018-12-16T11:41:49.524Z,29.20
2018-12-16T11:44:17.965Z,26.07
2018-12-16T11:46:46.452Z,14.47
2018-12-16T11:49:14.882Z,16.03
2018-12-16T11:51:43.529Z,26.37
2018-12-16T11:54:11.924Z,13.50
2018-12-16T11:56:40.338Z,27.23
2018-12-16T11:59:08.711Z,20.03
2018-12-16T12:01:37.129Z,20.10
2018-12-16T12:04:05.632Z,22.67
2018-12-16T12:06:34.368Z,26.47
2018-12-16T12:09:02.778Z,16.10
2018-12-16T12:11:31.218Z,16.00
2018-12-16T12:13:59.633Z,17.73
2018-12-16T12:16:28.057Z,18.50
2018-12-16T12:19:00.197Z,22.80
2018-12-16T12:21:28.629Z,20.40
2018-12-16T12:23:57.161Z,20.20
2018-12-16T12:26:25.611Z,21.63
2018-12-16T12:28:54.027Z,20.17
2018-12-16T12:31:22.496Z,23.63
2018-12-16T12:33:50.889Z,21.90
2018-12-16T12:36:19.329Z,17.93
2018-12-16T12:38:47.741Z,25.07
2018-12-16T12:41:16.190Z,20.07
2018-12-16T12:43:44.604Z,15.10
2018-12-16T12:46:13.072Z,21.57
2018-12-16T12:48:41.654Z,16.40
2018-12-16T12:51:10.352Z,18.77
2018-12-16T12:53:38.736Z,17.20
2018-12-16T12:56:07.205Z,23.90
2018-12-16T12:58:36.047Z,26.33
2018-12-16T13:01:04.604Z,28.50
2018-12-16T13:03:33.027Z,25.37
2018-12-16T13:06:01.462Z,25.57
2018-12-16T13:08:29.873Z,25.90
2018-12-16T13:10:58.277Z,22.07
2018-12-16T13:13:26.719Z,24.70
2018-12-16T13:15:55.129Z,26.87
2018-12-16T13:18:23.550Z,26.70
2018-12-16T13:20:51.984Z,24.03
2018-12-16T13:23:20.525Z,22.90
2018-12-16T13:26:02.672Z,24.90
2018-12-16T13:28:31.046Z,22.70
2018-12-16T13:30:59.395Z,22.67
2018-12-16T13:33:27.799Z,27.73
2018-12-16T13:35:56.204Z,21.87
2018-12-16T13:38:25.357Z,25.30
2018-12-16T13:40:53.703Z,20.50
2018-12-16T13:43:22.065Z,21.13
2018-12-16T13:45:50.469Z,20.57
2018-12-16T13:48:18.900Z,30.67
2018-12-16T13:50:47.299Z,24.80
2018-12-16T13:53:15.766Z,21.87
2018-12-16T13:55:44.182Z,19.93
2018-12-16T13:58:12.622Z,22.43
2018-12-16T14:00:41.005Z,22.87
2018-12-16T14:03:09.455Z,21.50
2018-12-16T14:05:37.835Z,27.03
2018-12-16T14:08:06.279Z,20.87
2018-12-16T14:10:34.682Z,28.07
2018-12-16T14:13:03.095Z,27.60
2018-12-16T14:15:31.499Z,27.63
2018-12-16T14:17:59.936Z,27.10
2018-12-16T14:20:28.324Z,21.60
2018-12-16T14:22:56.751Z,20.40
2018-12-16T14:25:25.147Z,23.40
2018-12-16T14:27:53.724Z,30.30
2018-12-16T14:30:22.159Z,26.87
2018-12-16T14:32:50.575Z,23.40
2018-12-16T14:35:19.088Z,23.10
2018-12-16T14:37:47.564Z,30.00
2018-12-16T14:40:15.995Z,22.83
2018-12-16T14:42:44.404Z,30.53
2018-12-16T14:45:12.929Z,41.67
2018-12-16T14:47:41.352Z,24.43
2018-12-16T14:50:09.951Z,20.33
2018-12-16T14:52:38.373Z,32.60
2018-12-16T14:55:07.029Z,26.20
2018-12-16T14:57:35.446Z,25.37
2018-12-16T15:00:06.361Z,20.43
2018-12-16T15:02:34.779Z,24.10
2018-12-16T15:05:03.543Z,26.40
2018-12-16T15:07:31.957Z,25.10
2018-12-16T15:10:00.385Z,20.90
2018-12-16T15:12:28.889Z,24.43
2018-12-16T15:14:57.376Z,26.87
2018-12-16T15:17:25.944Z,22.70
2018-12-16T15:19:54.365Z,28.67
2018-12-16T15:22:22.773Z,28.27
2018-12-16T15:24:51.188Z,27.47
2018-12-16T15:27:19.604Z,25.93
2018-12-16T15:29:48.025Z,20.67
2018-12-16T15:32:16.438Z,32.13
2018-12-16T15:34:44.923Z,30.70
2018-12-16T15:37:13.358Z,31.17
2018-12-16T15:39:41.841Z,20.00
2018-12-16T15:42:10.255Z,21.23
2018-12-16T15:44:38.773Z,22.80
2018-12-16T15:47:07.186Z,21.00
2018-12-16T15:49:35.814Z,31.10
2018-12-16T15:52:04.380Z,26.63
2018-12-16T15:54:32.806Z,27.63
2018-12-16T15:57:01.264Z,29.93
2018-12-16T15:59:29.740Z,27.43
2018-12-16T16:01:58.155Z,29.07
2018-12-16T16:04:26.580Z,28.33
2018-12-16T16:06:55.054Z,27.53
2018-12-16T16:09:23.450Z,30.53
2018-12-16T16:11:51.959Z,27.40
2018-12-16T16:14:20.412Z,30.57
2018-12-16T16:16:48.838Z,27.20
2018-12-16T16:19:17.242Z,23.40
2018-12-16T16:21:45.683Z,26.97
2018-12-16T16:24:14.141Z,28.30
2018-12-16T16:26:42.742Z,47.43
2018-12-16T16:29:11.317Z,33.53
2018-12-16T16:31:40.033Z,33.87
2018-12-16T16:34:08.792Z,37.90
2018-12-16T16:36:37.191Z,32.93
2018-12-16T16:39:06.783Z,47.33
2018-12-16T16:41:35.440Z,37.87
2018-12-16T16:44:04.418Z,40.63
2018-12-16T16:46:33.367Z,49.40
2018-12-16T16:49:02.297Z,36.47
2018-12-16T16:51:30.728Z,34.97
2018-12-16T16:53:59.154Z,35.90
2018-12-16T16:56:27.747Z,40.97
2018-12-16T16:58:56.157Z,26.90
2018-12-16T17:01:24.593Z,31.27
2018-12-16T17:03:53.058Z,38.63
2018-12-16T17:06:21.480Z,33.87
2018-12-16T17:08:49.994Z,28.50
2018-12-16T17:11:18.983Z,25.97
2018-12-16T17:13:47.427Z,21.87
2018-12-16T17:16:16.044Z,32.97
2018-12-16T17:18:44.791Z,25.90
2018-12-16T17:21:13.182Z,29.97
2018-12-16T17:23:41.600Z,35.20
2018-12-16T17:26:10.164Z,23.70
2018-12-16T17:28:38.673Z,35.77
2018-12-16T17:31:07.134Z,27.30
2018-12-16T17:33:35.669Z,30.13
2018-12-16T17:36:04.086Z,29.07
2018-12-16T17:38:32.601Z,33.90
2018-12-16T17:41:01.194Z,46.97
2018-12-16T17:43:29.629Z,27.47
2018-12-16T17:45:58.143Z,29.00
2018-12-16T17:48:26.642Z,33.40
2018-12-16T17:50:55.077Z,28.83
2018-12-16T17:53:23.500Z,26.50
2018-12-16T17:55:51.962Z,35.00
2018-12-16T17:58:20.486Z,33.50
2018-12-16T18:00:48.905Z,29.70
2018-12-16T18:03:17.488Z,27.90
2018-12-16T18:05:45.846Z,33.30
2018-12-16T18:08:14.198Z,38.50
2018-12-16T18:10:42.587Z,35.73
2018-12-16T18:13:10.947Z,28.90
2018-12-16T18:15:39.373Z,31.13
2018-12-16T18:18:07.771Z,28.97
2018-12-16T18:20:36.127Z,37.77
2018-12-16T18:23:04.545Z,31.83
2018-12-16T18:25:32.960Z,30.17
2018-12-16T18:28:01.338Z,23.87
2018-12-16T18:30:29.687Z,31.60
2018-12-16T18:32:58.299Z,25.67
2018-12-16T18:35:26.676Z,26.67
2018-12-16T18:37:55.310Z,29.90
2018-12-16T18:40:23.845Z,27.27
2018-12-16T18:42:52.226Z,28.33
2018-12-16T18:45:20.608Z,36.83
2018-12-16T18:47:49.061Z,25.77
2018-12-16T18:50:17.545Z,26.70
2018-12-16T18:52:46.014Z,32.40
2018-12-16T18:55:14.559Z,25.30
2018-12-16T18:57:42.969Z,29.80
2018-12-16T19:03:00.603Z,22.80
2018-12-16T19:05:28.981Z,25.37
2018-12-16T19:07:57.594Z,27.30
2018-12-16T19:10:26.719Z,27.93
2018-12-16T19:12:55.102Z,21.90
2018-12-16T19:15:23.651Z,26.43
2018-12-16T19:17:52.280Z,25.90
2018-12-16T19:20:20.655Z,22.50
2018-12-16T19:22:54.402Z,26.53
2018-12-16T19:25:22.754Z,24.40
2018-12-16T19:27:51.169Z,22.77
2018-12-16T19:30:19.767Z,29.10
2018-12-16T19:32:48.219Z,26.53
2018-12-16T19:35:16.630Z,26.93
2018-12-16T19:37:45.042Z,26.60
2018-12-16T19:40:13.429Z,28.57
2018-12-16T19:42:41.816Z,24.23
2018-12-16T19:45:14.926Z,26.47
2018-12-16T19:47:49.411Z,29.40
2018-12-16T19:50:13.787Z,25.37
2018-12-16T19:52:42.192Z,27.30
2018-12-16T19:55:10.780Z,27.87
2018-12-16T19:57:39.155Z,27.87
2018-12-16T20:00:08.326Z,24.30
2018-12-16T20:02:36.696Z,31.73
2018-12-16T20:07:51.594Z,26.07
2018-12-16T20:10:20.082Z,29.70
2018-12-16T20:12:48.469Z,46.00
2018-12-16T20:15:17.468Z,32.73
2018-12-16T20:17:45.847Z,27.33
2018-12-16T20:20:14.230Z,31.40
2018-12-16T20:22:42.606Z,27.03
2018-12-16T20:25:11.014Z,31.80
2018-12-16T20:27:39.471Z,26.57
2018-12-16T20:30:09.959Z,31.83
2018-12-16T20:32:38.338Z,32.90
2018-12-16T20:35:06.983Z,36.90
2018-12-16T20:37:36.131Z,30.23
2018-12-16T20:40:05.197Z,27.70
2018-12-16T20:42:33.569Z,36.57
2018-12-16T20:45:01.973Z,32.80
2018-12-16T20:47:30.382Z,32.00
2018-12-16T20:49:58.766Z,37.00
2018-12-16T20:52:27.212Z,32.93
2018-12-16T20:54:55.574Z,34.90
2018-12-16T20:57:24.055Z,31.70
2018-12-16T20:59:52.462Z,36.63
2018-12-16T21:02:20.850Z,33.87
2018-12-16T21:04:49.237Z,31.90
2018-12-16T21:07:17.614Z,36.47
2018-12-16T21:09:46.005Z,40.13
2018-12-16T21:15:26.052Z,39.23
2018-12-16T21:17:59.850Z,36.23
2018-12-16T21:20:28.243Z,43.00
2018-12-16T21:22:56.656Z,36.73
2018-12-16T21:25:25.026Z,39.23
2018-12-16T21:27:53.397Z,36.40
2018-12-16T21:30:21.737Z,43.10
2018-12-16T21:32:50.110Z,45.40
2018-12-16T21:35:18.462Z,39.20
2018-12-16T21:37:46.837Z,34.60
2018-12-16T21:40:15.202Z,37.97
2018-12-16T21:42:43.575Z,41.60
2018-12-16T21:45:11.959Z,42.10
2018-12-16T21:47:40.325Z,37.27
2018-12-16T21:50:08.806Z,43.43
2018-12-16T21:52:37.207Z,35.97
2018-12-16T21:55:06.527Z,40.30
2018-12-16T21:57:34.926Z,37.77
2018-12-16T22:00:03.822Z,39.17
2018-12-16T22:02:32.200Z,37.20
2018-12-16T22:05:00.583Z,35.63
2018-12-16T22:07:28.994Z,37.43
2018-12-16T22:09:57.342Z,41.00
2018-12-16T22:12:25.717Z,40.00
2018-12-16T22:14:54.066Z,37.87
2018-12-16T22:17:22.443Z,42.30
2018-12-16T22:19:50.830Z,40.17
2018-12-16T22:22:19.197Z,42.60
2018-12-16T22:24:47.562Z,39.53
2018-12-16T22:27:15.946Z,43.63
2018-12-16T22:29:44.303Z,41.97
2018-12-16T22:32:12.732Z,40.43
2018-12-16T22:34:41.166Z,34.60
2018-12-16T22:37:09.719Z,38.60
2018-12-16T22:39:38.100Z,38.90
2018-12-16T22:42:07.240Z,42.90
2018-12-16T22:44:35.650Z,43.27
2018-12-16T22:47:04.022Z,40.87
2018-12-16T22:49:32.505Z,42.13
2018-12-16T22:52:00.874Z,45.90
2018-12-16T22:54:29.259Z,37.30
2018-12-16T22:56:57.614Z,35.60
2018-12-16T22:59:26.005Z,39.17
2018-12-16T23:01:54.350Z,37.77
2018-12-16T23:04:22.752Z,46.03
2018-12-16T23:06:51.112Z,41.00
2018-12-16T23:09:19.498Z,38.83
2018-12-16T23:11:47.849Z,40.23
2018-12-16T23:14:16.232Z,47.07
2018-12-16T23:16:44.581Z,46.40
2018-12-16T23:19:12.947Z,42.10
2018-12-16T23:21:41.303Z,39.53
2018-12-16T23:24:09.672Z,41.13
2018-12-16T23:26:38.033Z,41.10
2018-12-16T23:29:06.459Z,45.60
2018-12-16T23:31:34.811Z,42.97
2018-12-16T23:34:03.175Z,38.77
2018-12-16T23:36:31.523Z,39.93
2018-12-16T23:38:59.904Z,38.47
2018-12-16T23:41:28.263Z,39.60
2018-12-16T23:43:56.634Z,43.10
2018-12-16T23:46:24.991Z,50.90
2018-12-16T23:48:53.386Z,47.17
2018-12-16T23:51:21.764Z,47.13
2018-12-16T23:53:50.135Z,39.00
2018-12-16T23:56:18.482Z,41.40
2018-12-16T23:58:46.851Z,50.20
